UAL188 KEWR-FAOR
Flight info
| Callsign | UAL188 |
|---|---|
| Flight time | N/A |
| Altitude | 33000 |
| Route | ELVAE DCT NECCK DCT DIXIE Y481 POPPN DCT ISLES DCT KAYYT/M084F330 DCT 38N060W 37N050W 35N045W 32N040W 28N035W DCT RUKAV/N0500F330 DCT BOTNO DCT 09N020W 05N017W 03S010W DCT URAPI DCT 12S000E DCT UDMON DCT DIMIX DCT IBNEV UL435 ETOSA UZ10 PEDIL DCT AVAGO |
| Aircraft | B789/H-SDE1E2E3FGHIJ2J3J4J5M1RWXY/LB1D1 |
Departure
| Time | 2026-05-07 22:25 |
|---|---|
| Airport | Newark Liberty International Airport (KEWR) |
Arrival
| Time | N/A |
|---|---|
| Airport | O.R. Tambo International Airport (FAOR) |
| Time | Latitude | Longitude | Altitude | Speed | Heading |
|---|---|---|---|---|---|
| 2026-05-07 22:00 | 40.69812 | -74.17815 | 35 ft | 0 kts | 270° |
| 2026-05-07 22:13 | 40.69812 | -74.17809 | 26 ft | 2 kts | 270° |
| 2026-05-07 22:13 | 40.69811 | -74.17788 | 31 ft | 2 kts | 280° |
| 2026-05-07 22:13 | 40.69806 | -74.17767 | 29 ft | 2 kts | 292° |
| 2026-05-07 22:13 | 40.69798 | -74.17748 | 31 ft | 2 kts | 308° |
| 2026-05-07 22:14 | 40.69786 | -74.17733 | 31 ft | 2 kts | 325° |
| 2026-05-07 22:14 | 40.69772 | -74.17723 | 32 ft | 2 kts | 341° |
| 2026-05-07 22:14 | 40.69755 | -74.17718 | 32 ft | 2 kts | 355° |
| 2026-05-07 22:14 | 40.69741 | -74.17719 | 32 ft | 1 kts | 8° |
| 2026-05-07 22:15 | 40.69738 | -74.17719 | 32 ft | 0 kts | 13° |
| 2026-05-07 22:16 | 40.69742 | -74.17718 | 32 ft | 1 kts | 19° |
| 2026-05-07 22:17 | 40.69764 | -74.17698 | 31 ft | 7 kts | 35° |
| 2026-05-07 22:17 | 40.69819 | -74.17642 | 26 ft | 12 kts | 38° |
| 2026-05-07 22:17 | 40.69897 | -74.17555 | 27 ft | 14 kts | 41° |
| 2026-05-07 22:17 | 40.69953 | -74.17473 | 29 ft | 11 kts | 72° |
| 2026-05-07 22:18 | 40.69944 | -74.17386 | 28 ft | 10 kts | 110° |
| 2026-05-07 22:18 | 40.69843 | -74.17199 | 27 ft | 15 kts | 133° |
| 2026-05-07 22:18 | 40.69752 | -74.17100 | 30 ft | 18 kts | 149° |
| 2026-05-07 22:19 | 40.69632 | -74.17021 | 29 ft | 21 kts | 159° |
| 2026-05-07 22:19 | 40.69487 | -74.16977 | 27 ft | 22 kts | 175° |
| 2026-05-07 22:19 | 40.69333 | -74.16985 | 27 ft | 22 kts | 193° |
| 2026-05-07 22:19 | 40.69192 | -74.17055 | 28 ft | 21 kts | 205° |
| 2026-05-07 22:20 | 40.69064 | -74.17135 | 22 ft | 20 kts | 206° |
| 2026-05-07 22:20 | 40.68944 | -74.17211 | 27 ft | 18 kts | 205° |
| 2026-05-07 22:20 | 40.68839 | -74.17279 | 26 ft | 17 kts | 206° |
| 2026-05-07 22:20 | 40.68728 | -74.17349 | 29 ft | 18 kts | 206° |
| 2026-05-07 22:21 | 40.68612 | -74.17423 | 30 ft | 20 kts | 206° |
| 2026-05-07 22:21 | 40.68475 | -74.17510 | 28 ft | 23 kts | 205° |
| 2026-05-07 22:21 | 40.68319 | -74.17610 | 27 ft | 27 kts | 206° |
| 2026-05-07 22:21 | 40.68155 | -74.17713 | 25 ft | 25 kts | 205° |
| 2026-05-07 22:22 | 40.68005 | -74.17808 | 29 ft | 23 kts | 206° |
| 2026-05-07 22:22 | 40.67874 | -74.17893 | 30 ft | 19 kts | 205° |
| 2026-05-07 22:22 | 40.67757 | -74.17968 | 28 ft | 18 kts | 205° |
| 2026-05-07 22:22 | 40.67652 | -74.18035 | 29 ft | 16 kts | 202° |
| 2026-05-07 22:23 | 40.67572 | -74.17994 | 27 ft | 12 kts | 121° |
| 2026-05-07 22:23 | 40.67568 | -74.17942 | 27 ft | 3 kts | 63° |
| 2026-05-07 22:23 | 40.67587 | -74.17917 | 29 ft | 5 kts | 32° |
| 2026-05-07 22:23 | 40.67594 | -74.17912 | 29 ft | 0 kts | 31° |
| 2026-05-07 22:24 | 40.67620 | -74.17893 | 27 ft | 23 kts | 28° |
| 2026-05-07 22:24 | 40.67947 | -74.17683 | 20 ft | 82 kts | 26° |
| 2026-05-07 22:24 | 40.68628 | -74.17251 | 28 ft | 134 kts | 25° |
| 2026-05-07 22:24 | 40.69618 | -74.16626 | 27 ft | 180 kts | 25° |
| 2026-05-07 22:25 | 40.70841 | -74.15825 | 259 ft | 200 kts | 30° |
| 2026-05-07 22:25 | 40.72026 | -74.14902 | 1072 ft | 205 kts | 33° |
| 2026-05-07 22:25 | 40.73104 | -74.13579 | 1797 ft | 214 kts | 43° |
| 2026-05-07 22:25 | 40.74226 | -74.12126 | 2138 ft | 239 kts | 39° |
| 2026-05-07 22:26 | 40.75539 | -74.10579 | 2367 ft | 266 kts | 38° |
| 2026-05-07 22:26 | 40.77111 | -74.09332 | 3087 ft | 259 kts | 11° |
| 2026-05-07 22:26 | 40.78890 | -74.09092 | 3877 ft | 258 kts | 343° |
| 2026-05-07 22:26 | 40.80393 | -74.10224 | 4689 ft | 250 kts | 306° |
| 2026-05-07 22:27 | 40.81130 | -74.12285 | 5430 ft | 252 kts | 284° |
| 2026-05-07 22:27 | 40.81490 | -74.14588 | 5975 ft | 260 kts | 279° |
| 2026-05-07 22:27 | 40.81764 | -74.16934 | 5990 ft | 260 kts | 278° |
| 2026-05-07 22:27 | 40.82010 | -74.19264 | 6000 ft | 259 kts | 277° |
| 2026-05-07 22:28 | 40.82192 | -74.21614 | 5980 ft | 257 kts | 265° |
| 2026-05-07 22:28 | 40.81531 | -74.23784 | 6026 ft | 262 kts | 236° |
| 2026-05-07 22:28 | 40.80187 | -74.25477 | 6025 ft | 268 kts | 213° |
| 2026-05-07 22:28 | 40.78448 | -74.26324 | 6018 ft | 274 kts | 189° |
| 2026-05-07 22:29 | 40.76544 | -74.26439 | 6005 ft | 275 kts | 184° |
| 2026-05-07 22:29 | 40.74632 | -74.26484 | 6005 ft | 275 kts | 185° |
| 2026-05-07 22:29 | 40.72720 | -74.26581 | 5998 ft | 275 kts | 186° |
| 2026-05-07 22:29 | 40.70810 | -74.26706 | 6007 ft | 274 kts | 186° |
| 2026-05-07 22:30 | 40.68907 | -74.26821 | 6002 ft | 274 kts | 186° |
| 2026-05-07 22:30 | 40.67003 | -74.26927 | 6007 ft | 274 kts | 186° |
| 2026-05-07 22:30 | 40.65096 | -74.27035 | 6002 ft | 274 kts | 186° |
| 2026-05-07 22:30 | 40.63192 | -74.27143 | 6005 ft | 274 kts | 186° |
| 2026-05-07 22:31 | 40.61289 | -74.27253 | 6005 ft | 274 kts | 186° |
| 2026-05-07 22:31 | 40.59388 | -74.27361 | 6000 ft | 273 kts | 186° |
| 2026-05-07 22:31 | 40.57490 | -74.27471 | 6004 ft | 273 kts | 186° |
| 2026-05-07 22:31 | 40.55594 | -74.27576 | 5998 ft | 272 kts | 185° |
| 2026-05-07 22:32 | 40.53724 | -74.27167 | 6007 ft | 279 kts | 159° |
| 2026-05-07 22:32 | 40.51932 | -74.26169 | 6008 ft | 280 kts | 165° |
| 2026-05-07 22:32 | 40.50081 | -74.25364 | 6010 ft | 280 kts | 164° |
| 2026-05-07 22:32 | 40.48244 | -74.24501 | 6005 ft | 280 kts | 165° |
| 2026-05-07 22:33 | 40.46407 | -74.23661 | 6006 ft | 281 kts | 160° |
| 2026-05-07 22:33 | 40.44603 | -74.22655 | 6009 ft | 282 kts | 161° |
| 2026-05-07 22:33 | 40.42797 | -74.21722 | 6007 ft | 282 kts | 163° |
| 2026-05-07 22:33 | 40.40962 | -74.20838 | 6010 ft | 281 kts | 163° |
| 2026-05-07 22:34 | 40.39126 | -74.19943 | 6017 ft | 281 kts | 163° |
| 2026-05-07 22:34 | 40.37300 | -74.19034 | 6013 ft | 281 kts | 162° |
| 2026-05-07 22:34 | 40.35470 | -74.18124 | 6016 ft | 281 kts | 163° |
| 2026-05-07 22:34 | 40.33640 | -74.17219 | 6012 ft | 282 kts | 163° |
| 2026-05-07 22:35 | 40.31802 | -74.16321 | 6019 ft | 282 kts | 166° |
| 2026-05-07 22:35 | 40.29894 | -74.16112 | 6605 ft | 269 kts | 192° |
| 2026-05-07 22:35 | 40.28002 | -74.16251 | 7361 ft | 276 kts | 183° |
| 2026-05-07 22:35 | 40.26074 | -74.16136 | 8138 ft | 278 kts | 184° |
| 2026-05-07 22:36 | 40.24140 | -74.16098 | 8888 ft | 278 kts | 188° |
| 2026-05-07 22:36 | 40.22204 | -74.16171 | 9648 ft | 280 kts | 190° |
| 2026-05-07 22:36 | 40.20253 | -74.16240 | 10381 ft | 280 kts | 189° |
| 2026-05-07 22:36 | 40.18299 | -74.16276 | 11108 ft | 281 kts | 189° |
| 2026-05-07 22:37 | 40.16357 | -74.16310 | 11771 ft | 283 kts | 190° |
| 2026-05-07 22:37 | 40.14356 | -74.16322 | 12485 ft | 288 kts | 184° |
| 2026-05-07 22:37 | 40.12385 | -74.15669 | 13126 ft | 306 kts | 166° |
| 2026-05-07 22:37 | 40.10515 | -74.14091 | 13765 ft | 328 kts | 144° |
| 2026-05-07 22:38 | 40.09123 | -74.11682 | 14298 ft | 349 kts | 121° |
| 2026-05-07 22:38 | 40.08345 | -74.08615 | 14807 ft | 361 kts | 110° |
| 2026-05-07 22:38 | 40.07691 | -74.05361 | 14913 ft | 382 kts | 109° |
| 2026-05-07 22:38 | 40.07010 | -74.01907 | 14970 ft | 403 kts | 109° |
| 2026-05-07 22:39 | 40.06283 | -73.98290 | 15213 ft | 416 kts | 109° |
| 2026-05-07 22:39 | 40.05543 | -73.94636 | 15865 ft | 418 kts | 109° |
| 2026-05-07 22:39 | 40.04794 | -73.90948 | 16437 ft | 422 kts | 109° |
| 2026-05-07 22:39 | 40.04040 | -73.87232 | 16998 ft | 425 kts | 109° |
| 2026-05-07 22:40 | 40.03278 | -73.83483 | 17553 ft | 429 kts | 109° |
| 2026-05-07 22:40 | 40.02508 | -73.79706 | 18101 ft | 433 kts | 109° |
| 2026-05-07 22:40 | 40.01729 | -73.75891 | 18557 ft | 437 kts | 109° |
| 2026-05-07 22:40 | 40.00941 | -73.72039 | 18956 ft | 442 kts | 109° |
| 2026-05-07 22:41 | 40.00141 | -73.68138 | 19385 ft | 447 kts | 109° |
| 2026-05-07 22:41 | 39.99331 | -73.64190 | 19794 ft | 452 kts | 110° |
| 2026-05-07 22:41 | 39.98513 | -73.60213 | 20214 ft | 456 kts | 110° |
| 2026-05-07 22:41 | 39.97685 | -73.56196 | 20603 ft | 461 kts | 110° |
| 2026-05-07 22:42 | 39.96848 | -73.52139 | 20989 ft | 466 kts | 110° |
| 2026-05-07 22:42 | 39.96000 | -73.48043 | 21387 ft | 470 kts | 110° |
| 2026-05-07 22:42 | 39.95143 | -73.43909 | 21775 ft | 475 kts | 110° |
| 2026-05-07 22:42 | 39.94287 | -73.39785 | 22150 ft | 479 kts | 110° |
| 2026-05-07 22:43 | 39.93412 | -73.35579 | 22543 ft | 483 kts | 110° |
| 2026-05-07 22:43 | 39.92527 | -73.31335 | 22929 ft | 487 kts | 111° |
| 2026-05-07 22:43 | 39.91633 | -73.27056 | 23288 ft | 491 kts | 111° |
| 2026-05-07 22:43 | 39.90731 | -73.22746 | 23618 ft | 495 kts | 111° |
| 2026-05-07 22:44 | 39.89823 | -73.18417 | 23960 ft | 497 kts | 111° |
| 2026-05-07 22:44 | 39.88910 | -73.14069 | 24295 ft | 499 kts | 111° |
| 2026-05-07 22:44 | 39.87988 | -73.09695 | 24622 ft | 502 kts | 111° |
| 2026-05-07 22:44 | 39.87061 | -73.05305 | 24938 ft | 504 kts | 111° |
| 2026-05-07 22:45 | 39.86128 | -73.00892 | 25258 ft | 506 kts | 111° |
| 2026-05-07 22:45 | 39.85189 | -72.96459 | 25581 ft | 509 kts | 111° |
| 2026-05-07 22:45 | 39.84248 | -72.92033 | 25891 ft | 511 kts | 111° |
| 2026-05-07 22:45 | 39.83297 | -72.87563 | 26185 ft | 513 kts | 111° |
| 2026-05-07 22:46 | 39.82331 | -72.83074 | 26483 ft | 514 kts | 114° |
| 2026-05-07 22:46 | 39.81151 | -72.78703 | 26730 ft | 514 kts | 116° |
| 2026-05-07 22:46 | 39.79977 | -72.74362 | 27045 ft | 516 kts | 116° |
| 2026-05-07 22:46 | 39.78795 | -72.69949 | 27315 ft | 518 kts | 116° |
| 2026-05-07 22:47 | 39.77596 | -72.65521 | 27600 ft | 520 kts | 116° |
| 2026-05-07 22:47 | 39.76382 | -72.61082 | 27867 ft | 522 kts | 116° |
| 2026-05-07 22:47 | 39.75158 | -72.56600 | 28134 ft | 525 kts | 116° |
| 2026-05-07 22:47 | 39.73939 | -72.52115 | 28397 ft | 527 kts | 116° |
| 2026-05-07 22:48 | 39.72711 | -72.47612 | 28659 ft | 529 kts | 116° |
| 2026-05-07 22:48 | 39.71475 | -72.43104 | 28908 ft | 531 kts | 116° |
| 2026-05-07 22:48 | 39.70229 | -72.38569 | 29143 ft | 534 kts | 116° |
| 2026-05-07 22:48 | 39.68997 | -72.34081 | 29376 ft | 536 kts | 116° |
| 2026-05-07 22:49 | 39.67742 | -72.29518 | 29613 ft | 538 kts | 116° |
| 2026-05-07 22:49 | 39.66476 | -72.24927 | 29850 ft | 540 kts | 116° |
| 2026-05-07 22:49 | 39.65205 | -72.20327 | 30059 ft | 542 kts | 115° |
| 2026-05-07 22:49 | 39.64042 | -72.15655 | 30209 ft | 546 kts | 113° |
| 2026-05-07 22:50 | 39.62871 | -72.10960 | 30410 ft | 547 kts | 114° |
| 2026-05-07 22:50 | 39.61666 | -72.06265 | 30585 ft | 549 kts | 113° |
| 2026-05-07 22:50 | 39.60482 | -72.01541 | 30780 ft | 551 kts | 113° |
| 2026-05-07 22:50 | 39.59316 | -71.96798 | 30957 ft | 553 kts | 112° |
| 2026-05-07 22:51 | 39.58133 | -71.92057 | 31139 ft | 554 kts | 113° |
| 2026-05-07 22:51 | 39.56927 | -71.87306 | 31311 ft | 556 kts | 113° |
| 2026-05-07 22:51 | 39.55720 | -71.82538 | 31483 ft | 557 kts | 113° |
| 2026-05-07 22:52 | 39.53328 | -71.73017 | 31803 ft | 561 kts | 113° |
| 2026-05-07 22:52 | 39.52107 | -71.68210 | 31963 ft | 562 kts | 113° |
| 2026-05-07 22:52 | 39.50879 | -71.63387 | 32114 ft | 564 kts | 113° |
| 2026-05-07 22:52 | 39.50047 | -71.60114 | 32215 ft | 565 kts | 112° |
| 2026-05-07 22:53 | 39.48832 | -71.55327 | 32359 ft | 567 kts | 112° |
| 2026-05-07 22:53 | 39.47596 | -71.50480 | 32516 ft | 568 kts | 112° |
| 2026-05-07 22:53 | 39.46348 | -71.45606 | 32651 ft | 570 kts | 112° |
| 2026-05-07 22:53 | 39.45097 | -71.40728 | 32783 ft | 572 kts | 112° |
| 2026-05-07 22:54 | 39.43844 | -71.35838 | 32876 ft | 575 kts | 112° |
| 2026-05-07 22:54 | 39.41949 | -71.25735 | 32864 ft | 582 kts | 102° |
| 2026-05-07 22:55 | 39.40617 | -71.15424 | 32868 ft | 580 kts | 102° |
| 2026-05-07 22:55 | 39.39254 | -71.05158 | 32859 ft | 579 kts | 102° |
| 2026-05-07 22:56 | 39.37906 | -70.94959 | 32856 ft | 578 kts | 102° |
| 2026-05-07 22:56 | 39.36535 | -70.84728 | 32857 ft | 577 kts | 102° |
| 2026-05-07 22:57 | 39.35162 | -70.74512 | 32852 ft | 577 kts | 102° |
| 2026-05-07 22:57 | 39.33779 | -70.64313 | 32849 ft | 576 kts | 102° |
| 2026-05-07 22:58 | 39.32391 | -70.54138 | 32853 ft | 575 kts | 101° |
| 2026-05-07 22:58 | 39.30995 | -70.43973 | 32853 ft | 574 kts | 101° |
| 2026-05-07 22:59 | 39.29601 | -70.33898 | 32853 ft | 574 kts | 101° |
| 2026-05-07 22:59 | 39.28191 | -70.23761 | 32847 ft | 573 kts | 101° |
| 2026-05-07 23:00 | 39.26773 | -70.13649 | 32850 ft | 572 kts | 101° |
| 2026-05-07 23:00 | 39.25348 | -70.03542 | 32846 ft | 572 kts | 101° |
| 2026-05-07 23:01 | 39.23915 | -69.93449 | 32845 ft | 572 kts | 101° |
| 2026-05-07 23:01 | 39.22472 | -69.83354 | 32838 ft | 571 kts | 101° |
| 2026-05-07 23:02 | 39.21032 | -69.73341 | 32842 ft | 571 kts | 101° |
| 2026-05-07 23:02 | 39.19577 | -69.63283 | 32838 ft | 570 kts | 101° |
| 2026-05-07 23:03 | 39.18114 | -69.53240 | 32834 ft | 569 kts | 101° |
| 2026-05-07 23:03 | 39.16645 | -69.43213 | 32831 ft | 569 kts | 101° |
| 2026-05-07 23:04 | 39.15177 | -69.33258 | 32844 ft | 570 kts | 101° |
| 2026-05-07 23:04 | 39.13687 | -69.23225 | 32842 ft | 569 kts | 101° |
| 2026-05-07 23:05 | 39.12195 | -69.13223 | 32851 ft | 568 kts | 101° |
| 2026-05-07 23:05 | 39.10694 | -69.03243 | 32841 ft | 567 kts | 101° |
| 2026-05-07 23:06 | 39.09191 | -68.93294 | 32839 ft | 566 kts | 101° |
| 2026-05-07 23:06 | 39.07677 | -68.83340 | 32836 ft | 565 kts | 101° |
| 2026-05-07 23:07 | 39.06170 | -68.73485 | 32834 ft | 563 kts | 101° |
| 2026-05-07 23:07 | 39.04650 | -68.63610 | 32833 ft | 562 kts | 100° |
| 2026-05-07 23:08 | 39.03126 | -68.53763 | 32832 ft | 561 kts | 100° |
| 2026-05-07 23:08 | 39.01597 | -68.43940 | 32833 ft | 559 kts | 100° |
| 2026-05-07 23:09 | 39.00062 | -68.34141 | 32835 ft | 557 kts | 100° |
| 2026-05-07 23:09 | 38.98540 | -68.24476 | 32838 ft | 555 kts | 100° |
| 2026-05-07 23:10 | 38.97019 | -68.14828 | 32828 ft | 552 kts | 106° |
| 2026-05-07 23:10 | 38.95484 | -68.05257 | 32818 ft | 544 kts | 106° |
| 2026-05-07 23:11 | 38.93963 | -67.95728 | 32820 ft | 544 kts | 106° |
| 2026-05-07 23:11 | 38.92429 | -67.86223 | 32812 ft | 543 kts | 107° |
| 2026-05-07 23:12 | 38.90885 | -67.76677 | 32810 ft | 541 kts | 107° |
| 2026-05-07 23:12 | 38.89346 | -67.67228 | 32808 ft | 541 kts | 107° |
| 2026-05-07 23:13 | 38.87819 | -67.57841 | 32810 ft | 540 kts | 104° |
| 2026-05-07 23:13 | 38.86969 | -67.48216 | 32820 ft | 544 kts | 100° |
| 2026-05-07 23:14 | 38.86161 | -67.38576 | 32823 ft | 543 kts | 100° |
| 2026-05-07 23:14 | 38.85348 | -67.28955 | 32820 ft | 541 kts | 100° |
| 2026-05-07 23:15 | 38.84531 | -67.19366 | 32814 ft | 541 kts | 101° |
| 2026-05-07 23:15 | 38.83705 | -67.09784 | 32811 ft | 539 kts | 101° |
| 2026-05-07 23:16 | 38.82874 | -67.00230 | 32814 ft | 538 kts | 101° |
| 2026-05-07 23:16 | 38.82043 | -66.90767 | 32810 ft | 536 kts | 101° |
| 2026-05-07 23:17 | 38.81196 | -66.81212 | 32819 ft | 536 kts | 101° |
| 2026-05-07 23:17 | 38.80353 | -66.71797 | 32821 ft | 535 kts | 101° |
| 2026-05-07 23:18 | 38.79498 | -66.62324 | 32814 ft | 535 kts | 101° |
| 2026-05-07 23:18 | 38.78633 | -66.52839 | 32815 ft | 536 kts | 101° |
| 2026-05-07 23:19 | 38.77762 | -66.43360 | 32814 ft | 536 kts | 101° |
| 2026-05-07 23:19 | 38.76882 | -66.33879 | 32813 ft | 535 kts | 101° |
| 2026-05-07 23:20 | 38.75994 | -66.24400 | 32807 ft | 536 kts | 101° |
| 2026-05-07 23:20 | 38.75097 | -66.14904 | 32816 ft | 537 kts | 101° |
| 2026-05-07 23:21 | 38.74191 | -66.05400 | 32816 ft | 538 kts | 101° |
| 2026-05-07 23:21 | 38.73277 | -65.95888 | 32823 ft | 538 kts | 101° |
| 2026-05-07 23:22 | 38.72354 | -65.86368 | 32821 ft | 539 kts | 101° |
| 2026-05-07 23:22 | 38.71428 | -65.76902 | 32823 ft | 539 kts | 101° |
| 2026-05-07 23:23 | 38.70489 | -65.67374 | 32830 ft | 539 kts | 101° |
| 2026-05-07 23:23 | 38.69541 | -65.57844 | 32838 ft | 540 kts | 101° |
| 2026-05-07 23:24 | 38.68583 | -65.48295 | 32843 ft | 541 kts | 100° |
| 2026-05-07 23:24 | 38.67615 | -65.38728 | 32841 ft | 543 kts | 100° |
| 2026-05-07 23:25 | 38.66637 | -65.29131 | 32842 ft | 543 kts | 100° |
| 2026-05-07 23:25 | 38.65651 | -65.19550 | 32841 ft | 543 kts | 100° |
| 2026-05-07 23:26 | 38.64657 | -65.09964 | 32851 ft | 543 kts | 100° |
| 2026-05-07 23:26 | 38.63662 | -65.00437 | 32854 ft | 543 kts | 101° |
| 2026-05-07 23:27 | 38.62144 | -64.86060 | 32860 ft | 543 kts | 101° |
| 2026-05-07 23:27 | 38.61123 | -64.76491 | 32864 ft | 543 kts | 101° |
| 2026-05-07 23:28 | 38.60096 | -64.66931 | 32865 ft | 542 kts | 101° |
| 2026-05-07 23:28 | 38.59062 | -64.57390 | 32872 ft | 542 kts | 101° |
| 2026-05-07 23:29 | 38.58020 | -64.47846 | 32871 ft | 541 kts | 101° |
| 2026-05-07 23:29 | 38.56980 | -64.38385 | 32874 ft | 540 kts | 101° |
| 2026-05-07 23:30 | 38.55921 | -64.28837 | 32875 ft | 539 kts | 101° |
| 2026-05-07 23:30 | 38.54869 | -64.19414 | 32878 ft | 539 kts | 100° |
| 2026-05-07 23:31 | 38.53801 | -64.09921 | 32878 ft | 539 kts | 100° |
| 2026-05-07 23:31 | 38.52728 | -64.00457 | 32882 ft | 538 kts | 100° |
| 2026-05-07 23:32 | 38.51647 | -63.90995 | 32886 ft | 538 kts | 100° |
| 2026-05-07 23:32 | 38.50559 | -63.81536 | 32892 ft | 538 kts | 100° |
| 2026-05-07 23:33 | 38.49464 | -63.72084 | 32889 ft | 538 kts | 100° |
| 2026-05-07 23:33 | 38.48362 | -63.62645 | 32893 ft | 537 kts | 100° |
| 2026-05-07 23:34 | 38.47263 | -63.53294 | 32898 ft | 536 kts | 100° |
| 2026-05-07 23:34 | 38.46149 | -63.43885 | 32899 ft | 535 kts | 100° |
| 2026-05-07 23:35 | 38.45029 | -63.34492 | 32905 ft | 534 kts | 100° |
| 2026-05-07 23:35 | 38.43905 | -63.25128 | 32908 ft | 534 kts | 100° |
| 2026-05-07 23:36 | 38.42774 | -63.15774 | 32906 ft | 533 kts | 100° |
| 2026-05-07 23:36 | 38.41639 | -63.06445 | 32910 ft | 532 kts | 101° |
| 2026-05-07 23:37 | 38.40496 | -62.97126 | 32914 ft | 532 kts | 101° |
| 2026-05-07 23:37 | 38.39348 | -62.87822 | 32919 ft | 531 kts | 101° |
| 2026-05-07 23:38 | 38.38195 | -62.78536 | 32928 ft | 530 kts | 101° |
| 2026-05-07 23:38 | 38.37035 | -62.69259 | 32929 ft | 530 kts | 101° |
| 2026-05-07 23:39 | 38.36066 | -62.61555 | 32923 ft | 530 kts | 101° |
| 2026-05-07 23:39 | 38.34700 | -62.50768 | 32929 ft | 530 kts | 101° |
| 2026-05-07 23:40 | 38.33717 | -62.43060 | 32933 ft | 530 kts | 101° |
| 2026-05-07 23:40 | 38.32531 | -62.33803 | 32936 ft | 530 kts | 101° |
| 2026-05-07 23:41 | 38.31336 | -62.24546 | 32942 ft | 529 kts | 101° |
| 2026-05-07 23:41 | 38.30134 | -62.15293 | 32946 ft | 529 kts | 101° |
| 2026-05-07 23:42 | 38.28926 | -62.06050 | 32951 ft | 528 kts | 101° |
| 2026-05-07 23:42 | 38.27712 | -61.96819 | 32946 ft | 528 kts | 101° |
| 2026-05-07 23:43 | 38.26499 | -61.87650 | 32954 ft | 528 kts | 101° |
| 2026-05-07 23:43 | 38.25271 | -61.78429 | 32956 ft | 528 kts | 101° |
| 2026-05-07 23:44 | 38.24038 | -61.69229 | 32956 ft | 528 kts | 101° |
| 2026-05-07 23:44 | 38.22797 | -61.60022 | 32962 ft | 527 kts | 101° |
| 2026-05-07 23:45 | 38.21550 | -61.50833 | 32962 ft | 527 kts | 101° |
| 2026-05-07 23:45 | 38.20297 | -61.41654 | 32960 ft | 526 kts | 101° |
| 2026-05-07 23:46 | 38.19040 | -61.32499 | 32969 ft | 525 kts | 101° |
| 2026-05-07 23:46 | 38.17777 | -61.23354 | 32963 ft | 524 kts | 101° |
| 2026-05-07 23:47 | 38.16518 | -61.14295 | 32969 ft | 524 kts | 101° |
| 2026-05-07 23:47 | 38.15244 | -61.05177 | 32971 ft | 524 kts | 101° |
| 2026-05-07 23:48 | 38.13962 | -60.96058 | 32973 ft | 523 kts | 101° |
| 2026-05-07 23:48 | 38.12675 | -60.86955 | 32973 ft | 524 kts | 101° |
| 2026-05-07 23:49 | 38.11379 | -60.77843 | 32976 ft | 525 kts | 101° |
| 2026-05-07 23:49 | 38.10083 | -60.68786 | 32978 ft | 525 kts | 101° |
| 2026-05-07 23:50 | 38.08770 | -60.59663 | 32980 ft | 526 kts | 101° |
| 2026-05-07 23:50 | 38.07447 | -60.50520 | 32982 ft | 526 kts | 101° |
| 2026-05-07 23:51 | 38.06118 | -60.41389 | 32985 ft | 526 kts | 101° |
| 2026-05-07 23:51 | 38.04782 | -60.32259 | 32985 ft | 526 kts | 101° |
| 2026-05-07 23:52 | 38.03442 | -60.23154 | 32990 ft | 525 kts | 101° |
| 2026-05-07 23:52 | 38.02094 | -60.14046 | 32991 ft | 524 kts | 101° |
| 2026-05-07 23:53 | 38.00741 | -60.04951 | 32990 ft | 524 kts | 101° |
| 2026-05-07 23:53 | 37.99749 | -59.95808 | 33001 ft | 524 kts | 94° |
| 2026-05-07 23:54 | 37.99240 | -59.86581 | 33008 ft | 524 kts | 94° |
| 2026-05-07 23:54 | 37.98694 | -59.77422 | 33010 ft | 525 kts | 95° |
| 2026-05-07 23:55 | 37.98156 | -59.68197 | 33010 ft | 524 kts | 95° |
| 2026-05-07 23:55 | 37.97601 | -59.58972 | 33019 ft | 524 kts | 95° |
| 2026-05-07 23:56 | 37.97042 | -59.49744 | 33016 ft | 524 kts | 95° |
| 2026-05-07 23:56 | 37.96480 | -59.40589 | 33016 ft | 524 kts | 95° |
| 2026-05-07 23:57 | 37.95906 | -59.31367 | 33013 ft | 525 kts | 95° |
| 2026-05-07 23:57 | 37.95324 | -59.22127 | 33016 ft | 526 kts | 95° |
| 2026-05-07 23:58 | 37.94735 | -59.12891 | 33019 ft | 526 kts | 94° |
| 2026-05-07 23:58 | 37.94139 | -59.03658 | 33012 ft | 526 kts | 94° |
| 2026-05-07 23:59 | 37.93536 | -58.94430 | 33020 ft | 525 kts | 95° |
| 2026-05-07 23:59 | 37.92927 | -58.85237 | 33016 ft | 522 kts | 95° |
| 2026-05-08 00:00 | 37.92315 | -58.76097 | 33018 ft | 520 kts | 95° |
| 2026-05-08 00:00 | 37.91698 | -58.66982 | 33020 ft | 519 kts | 95° |
| 2026-05-08 00:01 | 37.91074 | -58.57883 | 33016 ft | 519 kts | 95° |
| 2026-05-08 00:01 | 37.90443 | -58.48764 | 33021 ft | 519 kts | 95° |
| 2026-05-08 00:02 | 37.89804 | -58.39658 | 33016 ft | 520 kts | 95° |
| 2026-05-08 00:02 | 37.89161 | -58.30580 | 33020 ft | 520 kts | 95° |
| 2026-05-08 00:03 | 37.88507 | -58.21452 | 33025 ft | 520 kts | 95° |
| 2026-05-08 00:03 | 37.87847 | -58.12331 | 33015 ft | 521 kts | 95° |
| 2026-05-08 00:04 | 37.87176 | -58.03177 | 33024 ft | 522 kts | 95° |
| 2026-05-08 00:04 | 37.86498 | -57.94017 | 33027 ft | 522 kts | 95° |
| 2026-05-08 00:05 | 37.85814 | -57.84867 | 33021 ft | 521 kts | 95° |
| 2026-05-08 00:05 | 37.85124 | -57.75729 | 33027 ft | 522 kts | 95° |
| 2026-05-08 00:06 | 37.84431 | -57.66659 | 33026 ft | 521 kts | 95° |
| 2026-05-08 00:06 | 37.83726 | -57.57525 | 33021 ft | 520 kts | 95° |
| 2026-05-08 00:07 | 37.83017 | -57.48419 | 33024 ft | 520 kts | 95° |
| 2026-05-08 00:07 | 37.82300 | -57.39310 | 33024 ft | 520 kts | 95° |
| 2026-05-08 00:08 | 37.81576 | -57.30214 | 33025 ft | 519 kts | 95° |
| 2026-05-08 00:08 | 37.80846 | -57.21118 | 33023 ft | 519 kts | 95° |
| 2026-05-08 00:09 | 37.80114 | -57.12085 | 33029 ft | 519 kts | 95° |
| 2026-05-08 00:09 | 37.79371 | -57.03004 | 33026 ft | 519 kts | 95° |
| 2026-05-08 00:10 | 37.78620 | -56.93926 | 33021 ft | 518 kts | 95° |
| 2026-05-08 00:10 | 37.77864 | -56.84856 | 33020 ft | 519 kts | 95° |
| 2026-05-08 00:11 | 37.77101 | -56.75794 | 33022 ft | 518 kts | 94° |
| 2026-05-08 00:11 | 37.76331 | -56.66732 | 33019 ft | 517 kts | 94° |
| 2026-05-08 00:12 | 37.75557 | -56.57718 | 33018 ft | 516 kts | 94° |
| 2026-05-08 00:12 | 37.74782 | -56.48750 | 33022 ft | 516 kts | 94° |
| 2026-05-08 00:13 | 37.73994 | -56.39736 | 33019 ft | 516 kts | 94° |
| 2026-05-08 00:13 | 37.73202 | -56.30741 | 33016 ft | 515 kts | 94° |
| 2026-05-08 00:14 | 37.72403 | -56.21755 | 33016 ft | 514 kts | 94° |
| 2026-05-08 00:14 | 37.71599 | -56.12782 | 33015 ft | 513 kts | 94° |
| 2026-05-08 00:15 | 37.70789 | -56.03829 | 33014 ft | 513 kts | 94° |
| 2026-05-08 00:15 | 37.69974 | -55.94890 | 33011 ft | 512 kts | 93° |
| 2026-05-08 00:16 | 37.69153 | -55.85972 | 33015 ft | 511 kts | 93° |
| 2026-05-08 00:16 | 37.68327 | -55.77068 | 33019 ft | 510 kts | 93° |
| 2026-05-08 00:17 | 37.67501 | -55.68226 | 33018 ft | 510 kts | 93° |
| 2026-05-08 00:17 | 37.66663 | -55.59347 | 33015 ft | 508 kts | 93° |
| 2026-05-08 00:18 | 37.65821 | -55.50494 | 33014 ft | 508 kts | 93° |
| 2026-05-08 00:18 | 37.64974 | -55.41654 | 33017 ft | 507 kts | 93° |
| 2026-05-08 00:19 | 37.64121 | -55.32824 | 33018 ft | 506 kts | 93° |
| 2026-05-08 00:19 | 37.63263 | -55.24012 | 33017 ft | 505 kts | 93° |
| 2026-05-08 00:20 | 37.62400 | -55.15217 | 33018 ft | 505 kts | 92° |
| 2026-05-08 00:20 | 37.61531 | -55.06434 | 33020 ft | 504 kts | 92° |
| 2026-05-08 00:21 | 37.60658 | -54.97664 | 33022 ft | 503 kts | 92° |
| 2026-05-08 00:21 | 37.59779 | -54.88915 | 33022 ft | 503 kts | 92° |
| 2026-05-08 00:22 | 37.58900 | -54.80232 | 33026 ft | 502 kts | 92° |
| 2026-05-08 00:22 | 37.58012 | -54.71514 | 33027 ft | 502 kts | 92° |
| 2026-05-08 00:23 | 37.57115 | -54.62790 | 33023 ft | 501 kts | 92° |
| 2026-05-08 00:23 | 37.56214 | -54.54071 | 33032 ft | 501 kts | 92° |
| 2026-05-08 00:24 | 37.55306 | -54.45362 | 33028 ft | 501 kts | 92° |
| 2026-05-08 00:24 | 37.54392 | -54.36660 | 33032 ft | 500 kts | 92° |
| 2026-05-08 00:25 | 37.53480 | -54.28036 | 33038 ft | 500 kts | 92° |
| 2026-05-08 00:25 | 37.52557 | -54.19364 | 33033 ft | 498 kts | 92° |
| 2026-05-08 00:26 | 37.51630 | -54.10723 | 33034 ft | 497 kts | 92° |
| 2026-05-08 00:26 | 37.50699 | -54.02102 | 33036 ft | 497 kts | 92° |
| 2026-05-08 00:27 | 37.49920 | -53.94932 | 33038 ft | 497 kts | 92° |
| 2026-05-08 00:27 | 37.48979 | -53.86333 | 33041 ft | 495 kts | 92° |
| 2026-05-08 00:28 | 37.48036 | -53.77766 | 33045 ft | 494 kts | 92° |
| 2026-05-08 00:28 | 37.47086 | -53.69203 | 33048 ft | 493 kts | 92° |
| 2026-05-08 00:29 | 37.46132 | -53.60658 | 33051 ft | 492 kts | 92° |
| 2026-05-08 00:29 | 37.45176 | -53.52150 | 33050 ft | 490 kts | 92° |
| 2026-05-08 00:30 | 37.44223 | -53.43728 | 33049 ft | 488 kts | 92° |
| 2026-05-08 00:30 | 37.43261 | -53.35278 | 33054 ft | 488 kts | 92° |
| 2026-05-08 00:31 | 37.42294 | -53.26845 | 33057 ft | 487 kts | 92° |
| 2026-05-08 00:31 | 37.41322 | -53.18415 | 33059 ft | 486 kts | 92° |
| 2026-05-08 00:32 | 37.40346 | -53.10007 | 33060 ft | 486 kts | 92° |
| 2026-05-08 00:32 | 37.39362 | -53.01583 | 33060 ft | 486 kts | 92° |
| 2026-05-08 00:33 | 37.38372 | -52.93161 | 33062 ft | 486 kts | 92° |
| 2026-05-08 00:33 | 37.37378 | -52.84758 | 33060 ft | 486 kts | 92° |
| 2026-05-08 00:34 | 37.36386 | -52.76432 | 33067 ft | 484 kts | 92° |
| 2026-05-08 00:34 | 37.35386 | -52.68080 | 33064 ft | 482 kts | 92° |
| 2026-05-08 00:35 | 37.34383 | -52.59759 | 33067 ft | 480 kts | 92° |
| 2026-05-08 00:35 | 37.33379 | -52.51473 | 33064 ft | 479 kts | 92° |
| 2026-05-08 00:36 | 37.32370 | -52.43201 | 33071 ft | 479 kts | 92° |
| 2026-05-08 00:36 | 37.31361 | -52.34982 | 33077 ft | 479 kts | 92° |
| 2026-05-08 00:37 | 37.30343 | -52.26732 | 33082 ft | 477 kts | 92° |
| 2026-05-08 00:38 | 37.28811 | -52.14407 | 33088 ft | 475 kts | 92° |
| 2026-05-08 00:38 | 37.27786 | -52.06225 | 33097 ft | 474 kts | 92° |
| 2026-05-08 00:39 | 37.26755 | -51.98036 | 33098 ft | 475 kts | 92° |
| 2026-05-08 00:39 | 37.25717 | -51.89848 | 33104 ft | 474 kts | 93° |
| 2026-05-08 00:40 | 37.24674 | -51.81661 | 33111 ft | 474 kts | 93° |
| 2026-05-08 00:40 | 37.23628 | -51.73487 | 33108 ft | 474 kts | 93° |
| 2026-05-08 00:41 | 37.22574 | -51.65313 | 33116 ft | 475 kts | 93° |
| 2026-05-08 00:41 | 37.21519 | -51.57164 | 33114 ft | 476 kts | 93° |
| 2026-05-08 00:42 | 37.20450 | -51.48961 | 33121 ft | 476 kts | 94° |
| 2026-05-08 00:42 | 37.19375 | -51.40756 | 33122 ft | 477 kts | 94° |
| 2026-05-08 00:43 | 37.18299 | -51.32592 | 33132 ft | 478 kts | 94° |
| 2026-05-08 00:43 | 37.17210 | -51.24368 | 33134 ft | 478 kts | 94° |
| 2026-05-08 00:44 | 37.16113 | -51.16138 | 33139 ft | 479 kts | 94° |
| 2026-05-08 00:44 | 37.15008 | -51.07881 | 33142 ft | 481 kts | 95° |
| 2026-05-08 00:45 | 37.13894 | -50.99619 | 33153 ft | 481 kts | 95° |
| 2026-05-08 00:45 | 37.12775 | -50.91347 | 33150 ft | 481 kts | 95° |
| 2026-05-08 00:46 | 37.11649 | -50.83082 | 33150 ft | 482 kts | 95° |
| 2026-05-08 00:46 | 37.10516 | -50.74797 | 33147 ft | 483 kts | 96° |
| 2026-05-08 00:47 | 37.09372 | -50.66493 | 33157 ft | 484 kts | 96° |
| 2026-05-08 00:47 | 37.08230 | -50.58231 | 33153 ft | 485 kts | 96° |
| 2026-05-08 00:48 | 37.07070 | -50.49889 | 33163 ft | 486 kts | 97° |
| 2026-05-08 00:48 | 37.05903 | -50.41548 | 33162 ft | 487 kts | 97° |
| 2026-05-08 00:49 | 37.04723 | -50.33156 | 33172 ft | 489 kts | 97° |
| 2026-05-08 00:49 | 37.03538 | -50.24771 | 33164 ft | 489 kts | 98° |
| 2026-05-08 00:50 | 37.02347 | -50.16389 | 33175 ft | 489 kts | 98° |
| 2026-05-08 00:50 | 37.01151 | -50.08010 | 33156 ft | 490 kts | 98° |
| 2026-05-08 00:51 | 36.99784 | -49.99710 | 33194 ft | 492 kts | 109° |
| 2026-05-08 00:51 | 36.96998 | -49.91856 | 33176 ft | 495 kts | 114° |
| 2026-05-08 00:52 | 36.94089 | -49.84058 | 33160 ft | 494 kts | 114° |
| 2026-05-08 00:52 | 36.91208 | -49.76280 | 33184 ft | 493 kts | 114° |
| 2026-05-08 00:53 | 36.88314 | -49.68534 | 33181 ft | 492 kts | 115° |
| 2026-05-08 00:53 | 36.85425 | -49.60791 | 33172 ft | 491 kts | 115° |
| 2026-05-08 00:54 | 36.82526 | -49.53057 | 33183 ft | 491 kts | 115° |
| 2026-05-08 00:54 | 36.79641 | -49.45371 | 33184 ft | 491 kts | 115° |
| 2026-05-08 00:55 | 36.76734 | -49.37650 | 33184 ft | 491 kts | 115° |
| 2026-05-08 00:55 | 36.73822 | -49.29934 | 33187 ft | 492 kts | 115° |